KASX/ASX METAR and TAF weather

Enter ICAO airport designator
Station Type Date Time Source
KASX METAR 2019/04/22 17:53 UTC NOAA

KASX 221753Z AUTO 05013KT 4SM RA BR OVC003 03/03 A3013 RMK AO2 SLP214 P0009 60064 T00280028 10033 20022 58006


Station Type Date Time Source
KASX Decoded METAR 2019/04/22 17:53 UTC NOAA

ASHLAND KENNEDY MEMORIAL, WI, United States (KASX) 46-33N 090-55W 251M
Apr 22, 2019 - 01:53 PM EDT / 2019.04.22 1753 UTC
Wind: from the NE (050 degrees) at 15 MPH (13 KT):0
Visibility: 4 mile(s):0
Sky conditions: overcast
Weather: rain; mist
Precipitation last hour: 0.09 inches
Temperature: 37.0 F (2.8 C)
Dew Point: 37.0 F (2.8 C)
Relative Humidity: 100%
Pressure (altimeter): 30.13 in. Hg (1020 hPa)
Pressure tendency: 0.02 inches (0.6 hPa) lower than three hours ago
ob: KASX 221753Z AUTO 05013KT 4SM RA BR OVC003 03/03 A3013 RMK AO2 SLP214 P0009 60064 T00280028 10033 20022 58006
cycle: 18

Station Type Date Time Source
KASX TAF UTC NOAA

Error!

Example: see airport list